Share

Iron Mountain, MI

Iron Mountain, MI (KMIIRONM2) Elev 1155 ft | 45.83 °N, 88.06 °W | Change Station

Current weather conditions updated 8 minutes ago

Overcast
Overcast
35.4 °F
Feels Like 35 °F
N
2.2
Wind Variable Wind from WNW
Sunrise 6:02 AM
Sunset 7:41 PM
Moon Waning Gibbous

Tomorrow is forecast to be nearly the same temperature as today.

Pressure 30.25 in
Visibility 10.0 miles
Clouds Overcast 2900 ft
Windchill 35 °F
Dew Point 31 °F
Humidity 85%
Rainfall 1.16 in
Snow Depth Not available.
UV 0 out of 16
Pollen 7.20 out of 12
Air Quality Not available.
Flu Activity Sporadic
METAR KIMT 180054Z AUTO 28004KT 10SM OVC029 03/00 A3021 RMK AO2 SLP243 T00280000

More Conditions Fewer Conditions

Pressure 30.25 in
Visibility 10.0 miles
Clouds Overcast 2900 ft
Windchill 35 °F
Dew Point 31 °F
Humidity 85%
Rainfall 1.16 in
Snow Depth Not available.
UV 0 out of 16
Pollen 7.20 out of 12
Air Quality Not available.
Flu Activity Sporadic
METAR KIMT 180054Z AUTO 28004KT 10SM OVC029 03/00 A3021 RMK AO2 SLP243 T00280000

More Conditions Fewer Conditions

10-Day Forecast

Almanac

Astronomy

Apr. 17, 2014 Rise Set
Actual Time 6:02 AM CDT 7:41 PM CDT
Civil Twilight 5:31 AM CDT 8:13 PM CDT
Nautical Twilight 4:53 AM CDT 8:51 PM CDT
Astronomical Twilight 4:12 AM CDT 9:32 PM CDT
Moon 10:33 PM CDT (4/17) 7:28 AM CDT (4/17)
Length of Visible Light 14h 41m
Length of Day
13h 38m
Tomorrow will be 3m 4s longer.
Waning Gibbous, 91% of the Moon is Illuminated
Today
Waning Gibbous
Apr 22
Last Quarter
Apr 29
New
May 6
First Quarter
May 14
Full

Today's Extremes

State Highs State Lows

Community

  • Morning Light
    Morning Light
  • New Day
    New Day
  • Lake Michigan Sunrise
    Lake Michigan Sunrise
  • sunset from izmir, narlıdere
    sunset from izmir, narlıdere
  • oregon cherry
    oregon cherry

WunderPhotos

Upload Photos

1,702,209 photos uploaded!

WunderBlogs® & News

Nearby

Snow Depth

Station Depth Elevation
No new snow has been reported.

Coastal Water Temperatures

Place Temperature
No Stations Reporting

Earthquake Activity

City Distance Mag. Time & Date
No recent earthquake activity has been reported nearby.
Minimum magnitude displayed is 2.5.

Nearby Weather Stations

Station Location Temp. Windchill Dew Point Humidity Wind Precip. Elev Updated Type
Iron Mountain, MI, Iron Mountain, MI 35.4 °F 35 °F 31 °F 85% WNW  at  2.2 mph - / hr 1155 ft 8:46 PM CDT Normal
Spread Eagle Skies, Florence, WI 34.7 °F 35 °F 31 °F 85% NNW  at  0.0 mph 0.00 in / hr 1198 ft 8:50 PM CDT Rapid Fire
Norway, MI 34.2 °F 34 °F 33 °F 96% NW  at  2.0 mph 0.00 in / hr 1050 ft 8:51 PM CDT Normal
Downtown, Norway, MI 37.8 °F 35 °F 34 °F 87% WNW  at  3.5 mph 0.00 in / hr 935 ft 8:54 PM CDT Rapid Fire
RAWS RANDVILLE MI, Sagola, MI 34 °F 34 °F 33 °F 96% NW  at  3 mph 0.00 in / hr 1254 ft 8:13 PM CDT MADIS

Show More Stations Show Fewer Stations

What do you think?

We're not finished. Please let us know what you like, what you don't like, and what you are still missing.